sensor_id;sensor_type;location;lat;lon;timestamp;pressure;altitude;pressure_sealevel;temperature;humidity
70952;BME280;69214;55.880;37.542;2023-04-16T00:01:29;100355.34;;;2.83;32.50
70952;BME280;69214;55.880;37.542;2023-04-16T00:03:54;100364.63;;;2.89;32.92
70952;BME280;69214;55.880;37.542;2023-04-16T00:06:21;100357.56;;;2.88;33.30
70952;BME280;69214;55.880;37.542;2023-04-16T00:08:47;100364.28;;;2.84;32.27
70952;BME280;69214;55.880;37.542;2023-04-16T00:11:12;100373.88;;;2.86;32.44
70952;BME280;69214;55.880;37.542;2023-04-16T00:13:38;100357.16;;;2.75;32.92
70952;BME280;69214;55.880;37.542;2023-04-16T00:16:04;100373.53;;;2.81;31.98
70952;BME280;69214;55.880;37.542;2023-04-16T00:18:30;100376.38;;;2.80;33.37
70952;BME280;69214;55.880;37.542;2023-04-16T00:20:56;100371.25;;;2.69;33.68
70952;BME280;69214;55.880;37.542;2023-04-16T00:23:22;100376.13;;;2.65;32.60
70952;BME280;69214;55.880;37.542;2023-04-16T00:25:49;100373.75;;;2.62;33.46
70952;BME280;69214;55.880;37.542;2023-04-16T00:28:15;100370.03;;;2.63;33.02
70952;BME280;69214;55.880;37.542;2023-04-16T00:30:41;100381.88;;;2.70;32.91
70952;BME280;69214;55.880;37.542;2023-04-16T00:33:07;100381.03;;;2.70;33.57
70952;BME280;69214;55.880;37.542;2023-04-16T00:35:33;100377.97;;;2.65;32.78
70952;BME280;69214;55.880;37.542;2023-04-16T00:37:59;100383.13;;;2.58;32.92
70952;BME280;69214;55.880;37.542;2023-04-16T00:40:28;100380.28;;;2.59;33.37
70952;BME280;69214;55.880;37.542;2023-04-16T00:42:54;100383.28;;;2.56;33.62
70952;BME280;69214;55.880;37.542;2023-04-16T00:45:20;100369.25;;;2.45;33.41
70952;BME280;69214;55.880;37.542;2023-04-16T00:47:46;100379.53;;;2.49;33.13
70952;BME280;69214;55.880;37.542;2023-04-16T00:50:12;100370.03;;;2.37;33.52
70952;BME280;69214;55.880;37.542;2023-04-16T00:52:38;100370.56;;;2.41;33.69
70952;BME280;69214;55.880;37.542;2023-04-16T00:55:06;100386.56;;;2.42;33.04
70952;BME280;69214;55.880;37.542;2023-04-16T00:57:32;100369.66;;;2.32;33.18
70952;BME280;69214;55.880;37.542;2023-04-16T00:59:58;100373.72;;;2.36;33.88
70952;BME280;69214;55.880;37.542;2023-04-16T01:02:23;100381.81;;;2.36;32.87
70952;BME280;69214;55.880;37.542;2023-04-16T01:04:50;100378.72;;;2.31;34.37
70952;BME280;69214;55.880;37.542;2023-04-16T01:07:16;100370.59;;;2.23;34.38
70952;BME280;69214;55.880;37.542;2023-04-16T01:09:41;100371.59;;;2.22;33.86
70952;BME280;69214;55.880;37.542;2023-04-16T01:12:08;100382.34;;;2.22;33.97
70952;BME280;69214;55.880;37.542;2023-04-16T01:14:34;100375.28;;;2.21;33.41
70952;BME280;69214;55.880;37.542;2023-04-16T01:17:02;100365.97;;;2.15;33.95
70952;BME280;69214;55.880;37.542;2023-04-16T01:19:29;100370.38;;;2.16;33.88
70952;BME280;69214;55.880;37.542;2023-04-16T01:22:02;100368.19;;;2.20;34.59
70952;BME280;69214;55.880;37.542;2023-04-16T01:24:27;100372.13;;;2.25;34.67
70952;BME280;69214;55.880;37.542;2023-04-16T01:26:53;100363.13;;;2.17;33.61
70952;BME280;69214;55.880;37.542;2023-04-16T01:29:19;100368.59;;;2.25;33.76
70952;BME280;69214;55.880;37.542;2023-04-16T01:31:46;100371.97;;;2.27;34.10
70952;BME280;69214;55.880;37.542;2023-04-16T01:34:20;100374.81;;;2.25;33.92
70952;BME280;69214;55.880;37.542;2023-04-16T01:36:46;100365.03;;;2.24;33.93
70952;BME280;69214;55.880;37.542;2023-04-16T01:39:11;100374.50;;;2.28;34.49
70952;BME280;69214;55.880;37.542;2023-04-16T01:41:40;100376.66;;;2.25;34.02
70952;BME280;69214;55.880;37.542;2023-04-16T01:44:06;100373.97;;;2.25;34.55
70952;BME280;69214;55.880;37.542;2023-04-16T01:46:32;100370.59;;;2.23;33.29
70952;BME280;69214;55.880;37.542;2023-04-16T01:49:00;100368.75;;;2.23;34.27
70952;BME280;69214;55.880;37.542;2023-04-16T01:51:26;100361.97;;;2.19;34.56
70952;BME280;69214;55.880;37.542;2023-04-16T01:53:53;100368.75;;;2.23;35.20
70952;BME280;69214;55.880;37.542;2023-04-16T01:56:19;100360.97;;;2.20;34.12
70952;BME280;69214;55.880;37.542;2023-04-16T01:58:45;100366.19;;;2.22;33.88
70952;BME280;69214;55.880;37.542;2023-04-16T02:01:13;100375.28;;;2.21;34.94
70952;BME280;69214;55.880;37.542;2023-04-16T02:03:39;100369.06;;;2.20;35.19
70952;BME280;69214;55.880;37.542;2023-04-16T02:06:04;100370.91;;;2.20;35.55
70952;BME280;69214;55.880;37.542;2023-04-16T02:08:30;100362.28;;;2.16;35.16
70952;BME280;69214;55.880;37.542;2023-04-16T02:10:56;100367.03;;;2.22;34.51
70952;BME280;69214;55.880;37.542;2023-04-16T02:13:23;100373.44;;;2.21;34.97
70952;BME280;69214;55.880;37.542;2023-04-16T02:15:51;100367.34;;;2.19;34.09
70952;BME280;69214;55.880;37.542;2023-04-16T02:18:45;100368.50;;;2.17;35.45
70952;BME280;69214;55.880;37.542;2023-04-16T02:21:13;100373.28;;;2.23;35.24
70952;BME280;69214;55.880;37.542;2023-04-16T02:23:39;100373.59;;;2.20;35.23
70952;BME280;69214;55.880;37.542;2023-04-16T02:26:05;100374.44;;;2.20;33.79
70952;BME280;69214;55.880;37.542;2023-04-16T02:28:31;100368.66;;;2.15;35.05
70952;BME280;69214;55.880;37.542;2023-04-16T02:30:57;100369.50;;;2.16;34.57
70952;BME280;69214;55.880;37.542;2023-04-16T02:33:26;100381.50;;;2.21;35.49
70952;BME280;69214;55.880;37.542;2023-04-16T02:35:57;100375.97;;;2.23;35.49
70952;BME280;69214;55.880;37.542;2023-04-16T02:38:23;100376.75;;;2.15;33.55
70952;BME280;69214;55.880;37.542;2023-04-16T02:40:49;100370.59;;;2.23;35.62
70952;BME280;69214;55.880;37.542;2023-04-16T02:43:15;100365.50;;;2.20;34.82
70952;BME280;69214;55.880;37.542;2023-04-16T02:45:41;100376.34;;;2.28;34.57
70952;BME280;69214;55.880;37.542;2023-04-16T02:48:07;100375.34;;;2.29;34.72
70952;BME280;69214;55.880;37.542;2023-04-16T02:50:34;100374.19;;;2.32;35.01
70952;BME280;69214;55.880;37.542;2023-04-16T02:52:59;100385.50;;;2.35;34.38
70952;BME280;69214;55.880;37.542;2023-04-16T02:55:25;100366.97;;;2.32;35.39
70952;BME280;69214;55.880;37.542;2023-04-16T02:57:51;100376.78;;;2.41;35.36
70952;BME280;69214;55.880;37.542;2023-04-16T03:00:17;100387.25;;;2.44;34.45
70952;BME280;69214;55.880;37.542;2023-04-16T03:02:43;100389.47;;;2.49;34.69
70952;BME280;69214;55.880;37.542;2023-04-16T03:05:09;100384.47;;;2.54;34.06
70952;BME280;69214;55.880;37.542;2023-04-16T03:07:35;100391.38;;;2.56;34.86
70952;BME280;69214;55.880;37.542;2023-04-16T03:10:01;100388.53;;;2.58;34.84
70952;BME280;69214;55.880;37.542;2023-04-16T03:12:27;100389.91;;;2.62;35.20
70952;BME280;69214;55.880;37.542;2023-04-16T03:14:52;100392.28;;;2.65;35.09
70952;BME280;69214;55.880;37.542;2023-04-16T03:17:18;100393.81;;;2.68;35.13
70952;BME280;69214;55.880;37.542;2023-04-16T03:19:44;100397.19;;;2.70;35.16
70952;BME280;69214;55.880;37.542;2023-04-16T03:22:11;100394.88;;;2.75;34.42
70952;BME280;69214;55.880;37.542;2023-04-16T03:24:36;100392.03;;;2.76;34.97
70952;BME280;69214;55.880;37.542;2023-04-16T03:27:02;100382.94;;;2.77;34.56
70952;BME280;69214;55.880;37.542;2023-04-16T03:29:28;100393.28;;;2.90;34.87
70952;BME280;69214;55.880;37.542;2023-04-16T03:31:55;100389.41;;;2.92;34.22
70952;BME280;69214;55.880;37.542;2023-04-16T03:34:22;100385.28;;;3.06;35.09
70952;BME280;69214;55.880;37.542;2023-04-16T03:36:48;100384.16;;;3.17;35.14
70952;BME280;69214;55.880;37.542;2023-04-16T03:39:14;100389.25;;;3.28;35.37
70952;BME280;69214;55.880;37.542;2023-04-16T03:41:39;100386.09;;;3.33;34.73
70952;BME280;69214;55.880;37.542;2023-04-16T03:44:05;100381.88;;;3.38;34.03
70952;BME280;69214;55.880;37.542;2023-04-16T03:46:32;100366.38;;;3.40;34.32
70952;BME280;69214;55.880;37.542;2023-04-16T03:48:57;100387.00;;;3.57;35.13
70952;BME280;69214;55.880;37.542;2023-04-16T03:51:23;100382.16;;;3.69;34.26
70952;BME280;69214;55.880;37.542;2023-04-16T03:53:50;100388.09;;;3.81;33.84
70952;BME280;69214;55.880;37.542;2023-04-16T03:56:16;100398.75;;;3.99;34.43
70952;BME280;69214;55.880;37.542;2023-04-16T03:58:42;100398.59;;;4.65;34.20
70952;BME280;69214;55.880;37.542;2023-04-16T04:01:08;100388.09;;;6.04;32.71
70952;BME280;69214;55.880;37.542;2023-04-16T04:03:35;100372.25;;;7.50;31.03
70952;BME280;69214;55.880;37.542;2023-04-16T04:06:06;100375.78;;;9.27;29.29
70952;BME280;69214;55.880;37.542;2023-04-16T04:08:32;100380.78;;;11.05;27.85
70952;BME280;69214;55.880;37.542;2023-04-16T04:10:57;100380.09;;;12.63;26.79
70952;BME280;69214;55.880;37.542;2023-04-16T04:13:24;100377.03;;;13.94;24.86
70952;BME280;69214;55.880;37.542;2023-04-16T04:15:51;100362.88;;;14.69;24.57
70952;BME280;69214;55.880;37.542;2023-04-16T04:18:17;100368.50;;;15.33;24.73
70952;BME280;69214;55.880;37.542;2023-04-16T04:20:43;100377.56;;;15.97;23.60
70952;BME280;69214;55.880;37.542;2023-04-16T04:23:12;100372.69;;;16.89;22.68
70952;BME280;69214;55.880;37.542;2023-04-16T04:25:38;100364.47;;;17.88;22.11
70952;BME280;69214;55.880;37.542;2023-04-16T04:28:04;100353.94;;;18.98;21.18
70952;BME280;69214;55.880;37.542;2023-04-16T04:30:29;100356.72;;;19.87;20.97
70952;BME280;69214;55.880;37.542;2023-04-16T04:32:55;100356.34;;;20.41;19.92
70952;BME280;69214;55.880;37.542;2023-04-16T04:35:21;100367.44;;;20.66;20.68
70952;BME280;69214;55.880;37.542;2023-04-16T04:37:47;100371.91;;;20.78;19.73
70952;BME280;69214;55.880;37.542;2023-04-16T04:40:17;100365.22;;;20.84;19.56
70952;BME280;69214;55.880;37.542;2023-04-16T04:42:43;100366.59;;;21.07;19.49
70952;BME280;69214;55.880;37.542;2023-04-16T04:45:10;100356.31;;;21.27;19.92
70952;BME280;69214;55.880;37.542;2023-04-16T04:47:36;100372.31;;;21.66;18.75
70952;BME280;69214;55.880;37.542;2023-04-16T04:50:02;100356.38;;;21.92;18.85
70952;BME280;69214;55.880;37.542;2023-04-16T04:52:29;100365.94;;;21.65;18.94
70952;BME280;69214;55.880;37.542;2023-04-16T04:54:55;100369.09;;;21.03;19.40
70952;BME280;69214;55.880;37.542;2023-04-16T04:57:21;100370.09;;;20.16;19.62
70952;BME280;69214;55.880;37.542;2023-04-16T04:59:52;100366.75;;;19.09;20.27
70952;BME280;69214;55.880;37.542;2023-04-16T05:02:18;100370.75;;;18.59;20.77
70952;BME280;69214;55.880;37.542;2023-04-16T05:04:43;100360.16;;;18.51;20.94
70952;BME280;69214;55.880;37.542;2023-04-16T05:07:09;100375.97;;;18.56;20.98
70952;BME280;69214;55.880;37.542;2023-04-16T05:09:34;100371.00;;;18.85;20.51
70952;BME280;69214;55.880;37.542;2023-04-16T05:12:00;100370.47;;;18.88;20.53
70952;BME280;69214;55.880;37.542;2023-04-16T05:14:26;100376.59;;;18.36;20.97
70952;BME280;69214;55.880;37.542;2023-04-16T05:16:52;100361.75;;;17.93;21.10
70952;BME280;69214;55.880;37.542;2023-04-16T05:19:18;100377.59;;;17.59;21.42
70952;BME280;69214;55.880;37.542;2023-04-16T05:21:44;100374.91;;;17.26;21.72
70952;BME280;69214;55.880;37.542;2023-04-16T05:24:09;100360.63;;;16.95;21.70
70952;BME280;69214;55.880;37.542;2023-04-16T05:26:35;100377.25;;;17.56;21.46
70952;BME280;69214;55.880;37.542;2023-04-16T05:29:01;100366.84;;;18.55;20.86
70952;BME280;69214;55.880;37.542;2023-04-16T05:31:26;100366.03;;;19.66;20.31
70952;BME280;69214;55.880;37.542;2023-04-16T05:33:52;100351.34;;;20.48;19.34
70952;BME280;69214;55.880;37.542;2023-04-16T05:36:18;100370.19;;;21.12;19.04
70952;BME280;69214;55.880;37.542;2023-04-16T05:38:44;100365.38;;;21.69;18.65
70952;BME280;69214;55.880;37.542;2023-04-16T05:41:09;100357.41;;;22.16;18.18
70952;BME280;69214;55.880;37.542;2023-04-16T05:43:35;100349.00;;;22.66;17.98
70952;BME280;69214;55.880;37.542;2023-04-16T05:46:01;100369.31;;;23.05;17.59
70952;BME280;69214;55.880;37.542;2023-04-16T05:48:27;100363.50;;;23.31;17.23
70952;BME280;69214;55.880;37.542;2023-04-16T05:50:52;100348.72;;;23.59;17.03
70952;BME280;69214;55.880;37.542;2023-04-16T05:53:18;100368.72;;;24.09;16.68
70952;BME280;69214;55.880;37.542;2023-04-16T05:55:44;100362.00;;;24.52;16.56
70952;BME280;69214;55.880;37.542;2023-04-16T05:58:11;100363.97;;;25.36;16.17
70952;BME280;69214;55.880;37.542;2023-04-16T06:00:36;100348.16;;;26.50;15.46
70952;BME280;69214;55.880;37.542;2023-04-16T06:03:02;100355.38;;;27.62;15.15
70952;BME280;69214;55.880;37.542;2023-04-16T06:05:28;100348.09;;;28.18;14.62
70952;BME280;69214;55.880;37.542;2023-04-16T06:07:54;100351.91;;;27.65;14.54
70952;BME280;69214;55.880;37.542;2023-04-16T06:10:20;100346.44;;;26.85;15.01
70952;BME280;69214;55.880;37.542;2023-04-16T06:12:46;100348.75;;;27.05;15.05
70952;BME280;69214;55.880;37.542;2023-04-16T06:15:12;100344.09;;;27.23;14.72
70952;BME280;69214;55.880;37.542;2023-04-16T06:17:38;100349.50;;;27.50;14.55
70952;BME280;69214;55.880;37.542;2023-04-16T06:20:04;100333.25;;;27.61;14.23
70952;BME280;69214;55.880;37.542;2023-04-16T06:22:30;100326.63;;;27.26;14.03
70952;BME280;69214;55.880;37.542;2023-04-16T06:24:56;100346.00;;;27.14;14.33
70952;BME280;69214;55.880;37.542;2023-04-16T06:27:22;100319.75;;;27.71;13.93
70952;BME280;69214;55.880;37.542;2023-04-16T06:29:47;100344.63;;;28.21;14.03
70952;BME280;69214;55.880;37.542;2023-04-16T06:32:13;100350.63;;;27.71;14.01
70952;BME280;69214;55.880;37.542;2023-04-16T06:34:41;100317.13;;;26.10;14.84
70952;BME280;69214;55.880;37.542;2023-04-16T06:37:07;100348.84;;;26.05;14.47
70952;BME280;69214;55.880;37.542;2023-04-16T06:39:32;100348.16;;;26.94;13.47
70952;BME280;69214;55.880;37.542;2023-04-16T06:41:58;100343.44;;;26.59;14.33
70952;BME280;69214;55.880;37.542;2023-04-16T06:44:24;100329.28;;;25.37;14.38
70952;BME280;69214;55.880;37.542;2023-04-16T06:46:50;100337.50;;;24.31;15.27
70952;BME280;69214;55.880;37.542;2023-04-16T06:49:15;100342.88;;;24.22;15.60
70952;BME280;69214;55.880;37.542;2023-04-16T06:51:41;100323.03;;;24.80;14.97
70952;BME280;69214;55.880;37.542;2023-04-16T06:54:07;100344.94;;;25.52;15.36
70952;BME280;69214;55.880;37.542;2023-04-16T06:56:33;100336.69;;;25.74;14.50
70952;BME280;69214;55.880;37.542;2023-04-16T06:59:00;100333.84;;;26.51;13.91
70952;BME280;69214;55.880;37.542;2023-04-16T07:01:26;100332.31;;;27.43;13.76
70952;BME280;69214;55.880;37.542;2023-04-16T07:03:53;100317.38;;;28.13;13.60
70952;BME280;69214;55.880;37.542;2023-04-16T07:06:18;100329.38;;;29.34;13.21
70952;BME280;69214;55.880;37.542;2023-04-16T07:08:44;100330.56;;;29.72;12.68
70952;BME280;69214;55.880;37.542;2023-04-16T07:11:10;100315.75;;;29.54;12.01
70952;BME280;69214;55.880;37.542;2023-04-16T07:13:36;100335.59;;;28.93;12.04
70952;BME280;69214;55.880;37.542;2023-04-16T07:16:01;100333.25;;;27.61;12.26
70952;BME280;69214;55.880;37.542;2023-04-16T07:18:27;100337.81;;;26.00;13.12
70952;BME280;69214;55.880;37.542;2023-04-16T07:20:53;100337.94;;;25.08;13.30
70952;BME280;69214;55.880;37.542;2023-04-16T07:23:19;100290.72;;;23.37;14.08
70952;BME280;69214;55.880;37.542;2023-04-16T07:25:44;100337.22;;;21.90;14.67
70952;BME280;69214;55.880;37.542;2023-04-16T07:28:10;100340.53;;;20.57;15.44
70952;BME280;69214;55.880;37.542;2023-04-16T07:30:36;100338.47;;;20.07;15.77
70952;BME280;69214;55.880;37.542;2023-04-16T07:33:03;100337.47;;;20.94;15.99
70952;BME280;69214;55.880;37.542;2023-04-16T07:35:29;100315.03;;;22.35;14.86
70952;BME280;69214;55.880;37.542;2023-04-16T07:37:55;100343.69;;;23.61;14.63
70952;BME280;69214;55.880;37.542;2023-04-16T07:40:22;100327.44;;;24.11;14.06
70952;BME280;69214;55.880;37.542;2023-04-16T07:42:48;100319.94;;;24.30;13.65
70952;BME280;69214;55.880;37.542;2023-04-16T07:45:16;100324.66;;;24.67;14.44
70952;BME280;69214;55.880;37.542;2023-04-16T07:47:42;100335.38;;;24.41;13.54
70952;BME280;69214;55.880;37.542;2023-04-16T07:50:08;100340.63;;;23.34;13.87
70952;BME280;69214;55.880;37.542;2023-04-16T07:52:34;100331.63;;;21.95;14.43
70952;BME280;69214;55.880;37.542;2023-04-16T07:55:00;100321.97;;;20.57;15.20
70952;BME280;69214;55.880;37.542;2023-04-16T07:57:25;100325.72;;;19.38;15.56
70952;BME280;69214;55.880;37.542;2023-04-16T07:59:51;100324.38;;;18.66;16.00
70952;BME280;69214;55.880;37.542;2023-04-16T08:02:17;100319.44;;;18.41;16.31
70952;BME280;69214;55.880;37.542;2023-04-16T08:04:43;100317.38;;;18.59;16.11
70952;BME280;69214;55.880;37.542;2023-04-16T08:07:08;100324.06;;;18.95;16.38
70952;BME280;69214;55.880;37.542;2023-04-16T08:09:34;100320.38;;;19.26;15.86
70952;BME280;69214;55.880;37.542;2023-04-16T08:12:01;100313.59;;;19.49;16.16
70952;BME280;69214;55.880;37.542;2023-04-16T08:14:27;100319.19;;;19.59;15.90
70952;BME280;69214;55.880;37.542;2023-04-16T08:16:53;100311.69;;;19.07;15.93
70952;BME280;69214;55.880;37.542;2023-04-16T08:19:18;100309.91;;;18.00;16.43
70952;BME280;69214;55.880;37.542;2023-04-16T08:21:45;100300.34;;;16.65;16.96
70952;BME280;69214;55.880;37.542;2023-04-16T08:24:10;100288.47;;;15.58;17.93
70952;BME280;69214;55.880;37.542;2023-04-16T08:26:36;100306.50;;;14.90;18.22
70952;BME280;69214;55.880;37.542;2023-04-16T08:29:02;100308.38;;;14.43;18.58
70952;BME280;69214;55.880;37.542;2023-04-16T08:31:28;100301.94;;;14.07;18.82
70952;BME280;69214;55.880;37.542;2023-04-16T08:33:53;100307.28;;;14.02;19.11
70952;BME280;69214;55.880;37.542;2023-04-16T08:36:19;100294.81;;;13.88;19.00
70952;BME280;69214;55.880;37.542;2023-04-16T08:38:45;100293.75;;;13.89;19.59
70952;BME280;69214;55.880;37.542;2023-04-16T08:41:12;100285.16;;;14.27;19.02
70952;BME280;69214;55.880;37.542;2023-04-16T08:43:43;100292.63;;;14.62;19.17
70952;BME280;69214;55.880;37.542;2023-04-16T08:46:10;100294.66;;;14.66;18.77
70952;BME280;69214;55.880;37.542;2023-04-16T08:48:37;100293.41;;;14.39;18.74
70952;BME280;69214;55.880;37.542;2023-04-16T08:51:08;100287.13;;;14.08;19.55
70952;BME280;69214;55.880;37.542;2023-04-16T08:53:42;100271.16;;;13.75;19.16
70952;BME280;69214;55.880;37.542;2023-04-16T08:56:10;100264.19;;;13.61;19.15
70952;BME280;69214;55.880;37.542;2023-04-16T08:58:36;100270.28;;;13.63;18.79
70952;BME280;69214;55.880;37.542;2023-04-16T09:01:04;100261.81;;;13.65;19.53
70952;BME280;69214;55.880;37.542;2023-04-16T09:03:31;100256.56;;;13.63;19.92
70952;BME280;69214;55.880;37.542;2023-04-16T09:05:57;100263.09;;;13.32;19.64
70952;BME280;69214;55.880;37.542;2023-04-16T09:08:28;100275.28;;;12.75;19.71
70952;BME280;69214;55.880;37.542;2023-04-16T09:10:55;100268.97;;;12.31;19.95
70952;BME280;69214;55.880;37.542;2023-04-16T09:13:21;100273.16;;;12.33;20.24
70952;BME280;69214;55.880;37.542;2023-04-16T09:15:53;100272.25;;;12.40;20.18
70952;BME280;69214;55.880;37.542;2023-04-16T09:18:22;100276.16;;;12.25;20.31
70952;BME280;69214;55.880;37.542;2023-04-16T09:20:48;100270.34;;;12.15;20.20
70952;BME280;69214;55.880;37.542;2023-04-16T09:23:15;100274.13;;;12.14;20.51
70952;BME280;69214;55.880;37.542;2023-04-16T09:25:41;100258.38;;;12.10;20.30
70952;BME280;69214;55.880;37.542;2023-04-16T09:28:08;100267.22;;;12.12;20.46
70952;BME280;69214;55.880;37.542;2023-04-16T09:30:34;100252.75;;;12.05;20.68
70952;BME280;69214;55.880;37.542;2023-04-16T09:33:17;100249.56;;;12.08;20.66
70952;BME280;69214;55.880;37.542;2023-04-16T09:35:51;100251.97;;;12.22;20.92
70952;BME280;69214;55.880;37.542;2023-04-16T09:38:18;100252.16;;;12.27;20.92
70952;BME280;69214;55.880;37.542;2023-04-16T09:40:44;100240.06;;;12.10;20.97
70952;BME280;69214;55.880;37.542;2023-04-16T09:43:14;100233.53;;;11.86;20.98
70952;BME280;69214;55.880;37.542;2023-04-16T09:46:09;100257.81;;;12.01;21.29
70952;BME280;69214;55.880;37.542;2023-04-16T09:48:37;100253.31;;;12.13;20.71
70952;BME280;69214;55.880;37.542;2023-04-16T09:51:04;100257.78;;;12.32;21.24
70952;BME280;69214;55.880;37.542;2023-04-16T09:53:31;100265.81;;;12.52;20.63
70952;BME280;69214;55.880;37.542;2023-04-16T09:55:58;100256.09;;;12.56;19.83
70952;BME280;69214;55.880;37.542;2023-04-16T09:58:24;100254.47;;;12.49;20.31
70952;BME280;69214;55.880;37.542;2023-04-16T10:01:09;100245.06;;;12.63;20.93
70952;BME280;69214;55.880;37.542;2023-04-16T10:03:37;100245.25;;;12.86;20.70
70952;BME280;69214;55.880;37.542;2023-04-16T10:06:17;100245.94;;;13.00;20.54
70952;BME280;69214;55.880;37.542;2023-04-16T10:08:52;100234.78;;;13.20;20.67
70952;BME280;69214;55.880;37.542;2023-04-16T10:11:21;100231.78;;;13.40;20.08
70952;BME280;69214;55.880;37.542;2023-04-16T10:13:46;100236.47;;;13.81;19.68
70952;BME280;69214;55.880;37.542;2023-04-16T10:16:12;100234.28;;;14.24;19.37
70952;BME280;69214;55.880;37.542;2023-04-16T10:18:40;100230.28;;;14.62;19.47
70952;BME280;69214;55.880;37.542;2023-04-16T10:21:07;100220.72;;;14.88;19.66
70952;BME280;69214;55.880;37.542;2023-04-16T10:23:37;100219.06;;;14.75;19.96
70952;BME280;69214;55.880;37.542;2023-04-16T10:26:04;100213.31;;;14.53;20.28
70952;BME280;69214;55.880;37.542;2023-04-16T10:28:30;100218.06;;;14.35;20.31
70952;BME280;69214;55.880;37.542;2023-04-16T10:30:57;100205.03;;;14.07;20.16
70952;BME280;69214;55.880;37.542;2023-04-16T10:33:29;100221.66;;;14.35;20.55
70952;BME280;69214;55.880;37.542;2023-04-16T10:36:15;100221.91;;;14.80;20.58
70952;BME280;69214;55.880;37.542;2023-04-16T10:38:45;100223.59;;;15.33;20.45
70952;BME280;69214;55.880;37.542;2023-04-16T10:41:11;100196.97;;;15.22;19.61
70952;BME280;69214;55.880;37.542;2023-04-16T10:43:39;100186.66;;;14.89;19.59
70952;BME280;69214;55.880;37.542;2023-04-16T10:46:25;100199.81;;;14.87;20.73
70952;BME280;69214;55.880;37.542;2023-04-16T10:48:58;100216.78;;;14.84;19.86
70952;BME280;69214;55.880;37.542;2023-04-16T10:53:55;100206.97;;;14.30;20.62
70952;BME280;69214;55.880;37.542;2023-04-16T10:56:23;100205.78;;;14.25;20.39
70952;BME280;69214;55.880;37.542;2023-04-16T10:58:49;100208.25;;;14.15;20.63
70952;BME280;69214;55.880;37.542;2023-04-16T11:01:16;100215.41;;;14.05;20.51
70952;BME280;69214;55.880;37.542;2023-04-16T11:03:45;100213.13;;;14.02;20.49
70952;BME280;69214;55.880;37.542;2023-04-16T11:06:14;100197.44;;;13.67;20.61
70952;BME280;69214;55.880;37.542;2023-04-16T11:08:41;100199.09;;;13.38;20.85
70952;BME280;69214;55.880;37.542;2023-04-16T11:11:08;100201.94;;;13.13;21.03
70952;BME280;69214;55.880;37.542;2023-04-16T11:13:35;100198.75;;;12.98;21.39
70952;BME280;69214;55.880;37.542;2023-04-16T11:16:03;100195.88;;;12.93;21.21
70952;BME280;69214;55.880;37.542;2023-04-16T11:18:28;100202.78;;;12.95;21.20
70952;BME280;69214;55.880;37.542;2023-04-16T11:20:54;100194.13;;;12.98;20.74
70952;BME280;69214;55.880;37.542;2023-04-16T11:23:20;100181.03;;;13.01;20.73
70952;BME280;69214;55.880;37.542;2023-04-16T11:25:46;100182.63;;;13.08;20.88
70952;BME280;69214;55.880;37.542;2023-04-16T11:28:12;100192.38;;;13.22;21.18
70952;BME280;69214;55.880;37.542;2023-04-16T11:30:38;100182.38;;;13.28;20.56
70952;BME280;69214;55.880;37.542;2023-04-16T11:33:08;100177.72;;;13.28;20.87
70952;BME280;69214;55.880;37.542;2023-04-16T11:35:36;100178.53;;;13.17;21.11
70952;BME280;69214;55.880;37.542;2023-04-16T11:38:04;100176.38;;;13.01;20.85
70952;BME280;69214;55.880;37.542;2023-04-16T11:40:31;100165.91;;;12.80;21.31
70952;BME280;69214;55.880;37.542;2023-04-16T11:43:14;100175.09;;;12.67;21.73
70952;BME280;69214;55.880;37.542;2023-04-16T11:45:55;100173.50;;;12.59;21.80
70952;BME280;69214;55.880;37.542;2023-04-16T11:48:21;100171.06;;;12.51;21.37
70952;BME280;69214;55.880;37.542;2023-04-16T11:50:57;100178.22;;;12.52;21.89
70952;BME280;69214;55.880;37.542;2023-04-16T11:53:23;100170.44;;;12.49;21.80
70952;BME280;69214;55.880;37.542;2023-04-16T11:55:49;100175.53;;;12.27;21.87
70952;BME280;69214;55.880;37.542;2023-04-16T11:58:15;100164.25;;;12.17;21.82
70952;BME280;69214;55.880;37.542;2023-04-16T12:00:41;100157.25;;;12.21;21.83
70952;BME280;69214;55.880;37.542;2023-04-16T12:03:07;100141.47;;;12.23;21.96
70952;BME280;69214;55.880;37.542;2023-04-16T12:05:38;100153.19;;;12.49;22.06
70952;BME280;69214;55.880;37.542;2023-04-16T12:08:05;100140.25;;;12.74;21.70
70952;BME280;69214;55.880;37.542;2023-04-16T12:10:54;100134.31;;;12.95;21.60
70952;BME280;69214;55.880;37.542;2023-04-16T12:13:20;100142.25;;;13.15;21.41
70952;BME280;69214;55.880;37.542;2023-04-16T12:15:48;100138.25;;;13.18;21.83
70952;BME280;69214;55.880;37.542;2023-04-16T12:18:15;100143.63;;;13.24;21.89
70952;BME280;69214;55.880;37.542;2023-04-16T12:20:41;100140.34;;;13.16;21.59
70952;BME280;69214;55.880;37.542;2023-04-16T12:23:09;100128.28;;;13.05;21.68
70952;BME280;69214;55.880;37.542;2023-04-16T12:25:35;100117.25;;;12.93;21.80
70952;BME280;69214;55.880;37.542;2023-04-16T12:28:01;100121.34;;;13.03;21.32
70952;BME280;69214;55.880;37.542;2023-04-16T12:30:27;100127.72;;;13.15;21.22
70952;BME280;69214;55.880;37.542;2023-04-16T12:33:17;100113.84;;;13.28;21.68
70952;BME280;69214;55.880;37.542;2023-04-16T12:35:43;100103.88;;;13.34;21.54
70952;BME280;69214;55.880;37.542;2023-04-16T12:38:10;100101.63;;;13.42;21.73
70952;BME280;69214;55.880;37.542;2023-04-16T12:40:37;100116.56;;;13.58;21.42
70952;BME280;69214;55.880;37.542;2023-04-16T12:43:03;100092.56;;;13.42;21.51
70952;BME280;69214;55.880;37.542;2023-04-16T12:45:28;100113.41;;;13.43;21.43